Time;durP1;ratioP1;P1;durP2;ratioP2;P2;SDS_P1;SDS_P2;PMS_P1;PMS_P2;Temp;Humidity;BMP_temperature;BMP_pressure;BME280_temperature;BME280_humidity;BME280_pressure;Samples;Min_cycle;Max_cycle;Signal;HPM_P1;HPM_P2
2022/01/18 00:00:59;;;;;;;52.65;26.05;;;;;;;5.53;72.20;100976.53;5204330;28;20047;-70
2022/01/18 00:03:50;;;;;;;55.25;25.30;;;;;;;5.46;72.57;100948.72;5218346;28;20064;-71
2022/01/18 00:06:42;;;;;;;57.13;26.85;;;;;;;5.68;71.61;100974.19;5201517;28;20046;-71
2022/01/18 00:09:37;;;;;;;51.10;24.33;;;;;;;5.45;72.29;100978.59;5202157;28;20049;-70
2022/01/18 00:12:54;;;;;;;58.03;26.70;;;;;;;5.74;71.17;100984.44;5206186;28;20111;-71
2022/01/18 00:18:33;;;;;;;51.03;25.08;;;;;;;5.72;71.12;100973.97;5202517;28;20053;-70
2022/01/18 00:24:20;;;;;;;53.42;25.67;;;;;;;5.68;71.38;100968.91;5211542;28;20124;-71
2022/01/18 00:27:14;;;;;;;50.83;25.00;;;;;;;5.69;71.45;100958.31;5201091;28;20056;-71
2022/01/18 00:30:35;;;;;;;55.42;27.25;;;;;;;6.09;70.95;100986.47;5200724;28;20068;-70
2022/01/18 00:39:27;;;;;;;60.08;26.55;;;;;;;5.90;71.21;100988.16;5217444;28;20045;-71
2022/01/18 00:42:17;;;;;;;58.28;27.30;;;;;;;5.99;71.68;101006.19;5223718;28;20052;-71
2022/01/18 00:45:08;;;;;;;55.78;27.02;;;;;;;5.86;71.22;101007.59;5204121;28;20052;-71
2022/01/18 00:47:58;;;;;;;58.67;26.58;;;;;;;5.87;71.42;101009.34;5213812;28;20159;-70
2022/01/18 00:50:49;;;;;;;55.80;26.60;;;;;;;5.15;73.86;100997.31;5204189;28;20442;-70
2022/01/18 00:53:41;;;;;;;52.63;25.83;;;;;;;5.62;72.29;101009.50;5214264;28;20060;-71
2022/01/18 00:56:32;;;;;;;53.05;25.63;;;;;;;5.80;71.34;100994.72;5207246;28;20048;-70
2022/01/18 00:59:23;;;;;;;58.83;26.60;;;;;;;5.80;72.33;101006.09;5207117;28;20111;-71
2022/01/18 01:02:14;;;;;;;54.45;25.58;;;;;;;5.85;71.74;100998.00;5205844;28;20503;-70
2022/01/18 01:05:06;;;;;;;53.15;26.13;;;;;;;5.86;71.74;101013.75;5206078;28;20568;-70
2022/01/18 01:07:56;;;;;;;61.28;26.52;;;;;;;5.94;71.18;101016.09;5200393;28;20572;-71
2022/01/18 01:10:52;;;;;;;51.47;25.60;;;;;;;5.97;71.67;101013.31;5201590;28;20052;-71
2022/01/18 01:13:47;;;;;;;52.28;25.20;;;;;;;5.99;71.15;101010.63;5219266;28;20056;-71
2022/01/18 01:16:51;;;;;;;55.15;26.13;;;;;;;6.06;70.54;101022.59;5208605;28;20044;-71
2022/01/18 01:32:51;;;;;;;53.63;25.60;;;;;;;6.00;70.89;101023.72;5203411;28;20052;-70
2022/01/18 01:36:00;;;;;;;52.75;25.50;;;;;;;5.93;71.12;101029.31;5215488;28;20572;-70
2022/01/18 01:42:06;;;;;;;48.58;24.58;;;;;;;5.96;71.43;101023.91;5217153;28;20123;-71
2022/01/18 01:44:58;;;;;;;53.90;26.20;;;;;;;5.94;71.13;101023.13;5184217;28;20403;-71
2022/01/18 01:47:51;;;;;;;50.80;25.48;;;;;;;5.86;71.72;101049.72;5219447;28;20399;-71
2022/01/18 01:50:51;;;;;;;49.47;24.80;;;;;;;5.98;71.22;101041.38;5205927;28;20052;-71
2022/01/18 01:53:41;;;;;;;55.00;26.20;;;;;;;5.98;71.52;101040.50;5204651;28;20382;-70
2022/01/18 01:56:32;;;;;;;53.67;26.38;;;;;;;5.98;71.06;101049.25;5201647;28;20091;-71
2022/01/18 01:59:22;;;;;;;56.45;25.83;;;;;;;5.96;71.06;101044.97;5209850;28;20215;-71
2022/01/18 02:02:12;;;;;;;51.47;24.98;;;;;;;6.08;71.36;101047.94;5205831;28;20626;-70
2022/01/18 02:05:05;;;;;;;53.22;25.90;;;;;;;6.01;71.41;101045.66;5223808;28;20048;-70
2022/01/18 02:07:55;;;;;;;54.17;25.88;;;;;;;6.00;71.31;101043.94;5210481;28;20047;-71
2022/01/18 02:10:46;;;;;;;51.75;25.30;;;;;;;6.02;70.91;101045.56;5215901;28;20537;-71
2022/01/18 02:13:36;;;;;;;55.50;25.10;;;;;;;6.07;70.75;101032.22;5199418;28;20582;-71
2022/01/18 02:22:48;;;;;;;48.28;25.27;;;;;;;6.03;71.13;101039.41;5207946;28;20068;-71
2022/01/18 02:25:38;;;;;;;47.50;23.83;;;;;;;6.12;70.65;101040.78;5216596;28;20065;-71
2022/01/18 02:28:28;;;;;;;51.03;25.30;;;;;;;5.94;70.82;101041.56;5206311;28;20134;-70
2022/01/18 02:31:19;;;;;;;53.70;25.48;;;;;;;6.04;71.46;101050.78;5205069;28;20072;-71
2022/01/18 02:34:15;;;;;;;48.47;24.20;;;;;;;6.01;70.61;101033.34;5204940;28;20051;-71
2022/01/18 02:37:05;;;;;;;55.28;25.52;;;;;;;5.98;70.96;101033.47;5205402;28;20580;-71
2022/01/18 02:39:55;;;;;;;52.97;26.45;;;;;;;5.80;72.03;101055.28;5202877;28;20371;-71
2022/01/18 02:42:56;;;;;;;54.80;24.58;;;;;;;5.99;71.78;101047.47;5214139;28;20055;-71
2022/01/18 02:45:46;;;;;;;49.90;24.60;;;;;;;6.08;70.38;101042.69;5213135;28;20500;-71
2022/01/18 02:48:37;;;;;;;55.47;26.50;;;;;;;5.98;71.43;101032.59;5206906;28;20140;-71
2022/01/18 02:51:27;;;;;;;53.55;25.45;;;;;;;6.11;70.43;101032.03;5203165;28;20060;-71
2022/01/18 02:54:18;;;;;;;49.20;25.08;;;;;;;6.11;70.62;101037.28;5217577;28;20049;-71
2022/01/18 02:57:14;;;;;;;44.15;22.65;;;;;;;6.15;71.75;101040.66;5207574;28;20131;-71
2022/01/18 03:00:19;;;;;;;48.35;23.95;;;;;;;6.13;71.20;101025.84;5200306;28;20041;-71
2022/01/18 03:06:05;;;;;;;53.72;24.77;;;;;;;6.16;71.12;101028.31;5202292;28;20084;-71
2022/01/18 03:08:56;;;;;;;48.30;25.23;;;;;;;5.94;71.36;101015.25;5201831;28;20088;-70
2022/01/18 03:11:46;;;;;;;50.53;24.52;;;;;;;6.02;70.41;101029.78;5218116;28;20050;-71
2022/01/18 03:14:38;;;;;;;49.53;23.40;;;;;;;6.00;70.90;101029.00;5198662;28;20104;-71
2022/01/18 03:17:28;;;;;;;52.35;25.05;;;;;;;5.98;71.17;101022.06;5213935;28;20419;-70
2022/01/18 03:20:19;;;;;;;48.75;24.40;;;;;;;5.99;71.03;101027.25;5197572;28;20115;-71
2022/01/18 03:23:15;;;;;;;51.88;24.05;;;;;;;6.11;71.32;101039.91;5202467;28;20053;-70
2022/01/18 03:26:14;;;;;;;50.70;25.38;;;;;;;6.11;70.58;101037.28;5204638;28;20096;-71
2022/01/18 03:29:04;;;;;;;56.30;25.63;;;;;;;5.89;71.89;101028.53;5221385;28;20125;-71
2022/01/18 03:31:55;;;;;;;53.65;25.35;;;;;;;5.98;71.67;101024.72;5205733;28;20137;-71
2022/01/18 03:34:46;;;;;;;53.15;25.85;;;;;;;5.87;71.37;101011.97;5212101;28;20107;-71
2022/01/18 03:37:36;;;;;;;54.83;25.73;;;;;;;6.02;71.31;101032.41;5200823;28;20044;-70
2022/01/18 03:40:27;;;;;;;50.55;24.05;;;;;;;6.11;70.82;101024.13;5219552;28;20418;-70
2022/01/18 03:43:18;;;;;;;51.85;25.58;;;;;;;6.05;70.88;101027.00;5208357;28;20054;-71
2022/01/18 03:46:10;;;;;;;53.45;25.55;;;;;;;6.02;70.86;101026.28;5202204;28;20103;-71
2022/01/18 03:49:02;;;;;;;54.30;26.15;;;;;;;6.00;71.09;101023.72;5197505;28;20053;-71
2022/01/18 03:51:52;;;;;;;56.08;26.20;;;;;;;5.97;70.82;101021.22;5207947;28;20050;-72
2022/01/18 03:54:47;;;;;;;55.63;26.60;;;;;;;5.98;71.52;101033.47;5204913;28;20106;-71
2022/01/18 03:57:37;;;;;;;58.35;27.02;;;;;;;6.00;71.00;101039.53;5217981;28;20053;-71
2022/01/18 04:00:28;;;;;;;52.55;25.63;;;;;;;6.08;70.63;101047.09;5204809;28;20420;-71
2022/01/18 04:03:19;;;;;;;54.45;25.88;;;;;;;6.06;70.80;101047.19;5202909;28;20055;-71
2022/01/18 04:06:09;;;;;;;58.63;26.05;;;;;;;6.06;70.81;101028.75;5200219;28;20538;-70
2022/01/18 04:09:00;;;;;;;49.92;25.55;;;;;;;5.89;70.80;101016.25;5202101;28;20126;-70
2022/01/18 04:11:50;;;;;;;56.28;25.75;;;;;;;6.02;70.65;101052.63;5196750;28;20522;-70
2022/01/18 04:14:41;;;;;;;61.67;28.23;;;;;;;5.72;71.91;101049.44;5203910;28;20183;-70
2022/01/18 04:18:25;;;;;;;59.28;27.52;;;;;;;5.89;71.81;101057.50;5214914;28;20523;-71
2022/01/18 04:27:01;;;;;;;62.20;28.30;;;;;;;5.63;71.71;101037.53;5203148;28;20068;-71
2022/01/18 04:29:51;;;;;;;63.38;26.98;;;;;;;5.78;71.43;101059.72;5212520;28;20142;-71
2022/01/18 04:32:41;;;;;;;60.55;26.63;;;;;;;5.76;71.27;101045.75;5220467;28;20195;-72
2022/01/18 04:35:31;;;;;;;56.42;27.63;;;;;;;5.85;71.48;101064.66;5212561;28;20600;-71
2022/01/18 04:38:22;;;;;;;61.25;27.45;;;;;;;5.93;70.81;101068.78;5206354;28;20047;-71
2022/01/18 04:41:16;;;;;;;60.88;28.13;;;;;;;5.94;71.45;101070.53;5202229;28;20065;-70
2022/01/18 04:48:23;;;;;;;;;;;;;;;5.76;71.59;101072.09;5210775;28;20541;-70
2022/01/18 04:50:25;;;;;;;65.38;29.40;;;;;;;5.88;71.53;101082.13;5207023;28;20049;-69
2022/01/18 04:53:15;;;;;;;57.55;27.50;;;;;;;5.81;71.26;101049.94;5189821;28;20252;-69
2022/01/18 04:56:10;;;;;;;57.47;26.52;;;;;;;5.98;70.73;101080.84;5212123;28;20142;-72
2022/01/18 04:59:01;;;;;;;59.00;27.83;;;;;;;5.80;70.97;101069.28;5219318;28;20419;-73
2022/01/18 05:01:51;;;;;;;59.67;26.98;;;;;;;5.86;70.98;101084.84;5204180;28;20487;-70
2022/01/18 05:04:43;;;;;;;58.13;26.17;;;;;;;5.88;70.81;101082.13;5201934;28;20119;-73
2022/01/18 05:07:33;;;;;;;53.65;26.88;;;;;;;5.82;70.72;101080.59;5204546;28;20060;-74
2022/01/18 05:10:27;;;;;;;55.17;26.63;;;;;;;5.76;70.99;101087.88;5213414;28;20056;-70
2022/01/18 05:13:35;;;;;;;61.75;27.15;;;;;;;5.84;70.64;101075.28;5210255;28;20044;-73
2022/01/18 05:22:58;;;;;;;54.47;23.65;;;;;;;5.74;71.85;101080.06;5205764;28;20464;-71
2022/01/18 05:25:50;;;;;;;51.28;24.38;;;;;;;5.81;71.65;101085.94;5216504;28;20415;-72
2022/01/18 05:28:40;;;;;;;54.38;24.17;;;;;;;5.75;71.21;101091.44;5214610;28;20451;-71
2022/01/18 05:31:30;;;;;;;59.95;27.38;;;;;;;5.70;71.23;101088.16;5199167;28;20110;-72
2022/01/18 05:34:20;;;;;;;53.60;25.80;;;;;;;5.56;72.06;101081.66;5206413;28;20592;-72
2022/01/18 05:37:12;;;;;;;56.25;26.88;;;;;;;5.68;71.63;101089.97;5209521;28;20041;-73
2022/01/18 05:40:02;;;;;;;50.53;24.70;;;;;;;5.75;71.37;101094.06;5204491;28;20053;-73
2022/01/18 05:42:53;;;;;;;49.47;24.30;;;;;;;5.57;71.34;101056.22;5212818;28;20499;-71
2022/01/18 05:45:43;;;;;;;57.92;25.63;;;;;;;5.60;71.55;101075.34;5206568;28;20049;-73
2022/01/18 05:48:34;;;;;;;61.72;27.45;;;;;;;5.55;71.09;101073.81;5215385;28;20653;-72
2022/01/18 05:51:24;;;;;;;63.50;26.88;;;;;;;5.60;71.16;101085.03;5210162;28;20068;-73
2022/01/18 05:54:14;;;;;;;65.38;27.35;;;;;;;5.62;71.49;101081.41;5206628;28;20064;-73
2022/01/18 05:57:05;;;;;;;57.92;26.70;;;;;;;5.63;71.60;101087.53;5193866;28;20044;-69
2022/01/18 06:00:02;;;;;;;65.13;28.98;;;;;;;5.72;70.92;101091.56;5204331;28;20534;-70
2022/01/18 06:03:03;;;;;;;61.97;27.08;;;;;;;5.68;70.91;101095.25;5204698;28;20060;-70
2022/01/18 06:09:04;;;;;;;59.65;27.17;;;;;;;5.43;71.09;101083.06;5193233;28;20056;-73
2022/01/18 06:11:54;;;;;;;59.88;27.10;;;;;;;5.53;70.82;101096.69;5204416;28;20641;-74
2022/01/18 06:14:45;;;;;;;65.93;28.02;;;;;;;5.52;71.50;101092.34;5190103;28;20044;-72
2022/01/18 06:17:35;;;;;;;61.72;27.60;;;;;;;5.59;71.36;101094.69;5204243;28;20597;-71
2022/01/18 06:20:25;;;;;;;58.38;26.70;;;;;;;5.68;71.09;101095.25;5202541;28;20047;-72
2022/01/18 06:23:15;;;;;;;56.25;26.15;;;;;;;5.69;71.13;101115.38;5203718;28;20053;-71
2022/01/18 06:26:05;;;;;;;57.88;26.73;;;;;;;5.75;70.78;101104.59;5188342;28;20057;-74
2022/01/18 06:28:56;;;;;;;63.70;28.25;;;;;;;5.55;71.79;101093.09;5202963;28;20034;-71
2022/01/18 06:31:47;;;;;;;54.65;26.23;;;;;;;5.53;71.41;101113.38;5203028;28;20504;-70
2022/01/18 06:34:37;;;;;;;60.70;27.38;;;;;;;5.47;70.97;101103.06;5201257;28;20517;-69
2022/01/18 06:37:27;;;;;;;60.15;25.92;;;;;;;5.42;72.68;101111.13;5194879;28;20160;-70
2022/01/18 06:40:18;;;;;;;59.75;26.52;;;;;;;5.55;71.49;101116.78;5200860;28;20879;-69
2022/01/18 06:43:08;;;;;;;62.58;27.27;;;;;;;5.56;71.49;101120.25;5195299;28;20207;-70
2022/01/18 06:45:59;;;;;;;60.35;26.25;;;;;;;5.42;71.80;101099.75;5191661;28;20061;-68
2022/01/18 06:48:49;;;;;;;59.53;26.73;;;;;;;5.52;71.72;101123.94;5200918;28;20095;-69
2022/01/18 06:51:39;;;;;;;63.22;27.55;;;;;;;5.47;70.91;101129.38;5192466;28;20049;-71
2022/01/18 06:54:29;;;;;;;51.10;26.05;;;;;;;5.45;71.32;101131.19;5203948;28;20420;-69
2022/01/18 06:57:19;;;;;;;64.03;27.25;;;;;;;5.44;71.20;101112.84;5194665;28;20104;-69
2022/01/18 07:00:10;;;;;;;65.57;29.52;;;;;;;5.47;71.66;101112.75;5195238;28;20033;-68
2022/01/18 07:03:00;;;;;;;65.00;29.52;;;;;;;5.48;72.07;101136.34;5193069;28;20045;-70
2022/01/18 07:05:51;;;;;;;70.53;32.10;;;;;;;5.56;72.30;101133.41;5198283;28;20088;-69
2022/01/18 07:08:42;;;;;;;70.75;30.58;;;;;;;5.57;71.75;101143.03;5201103;28;20072;-71
2022/01/18 07:11:32;;;;;;;70.65;30.77;;;;;;;5.54;71.81;101136.13;5200032;28;20135;-70
2022/01/18 07:14:23;;;;;;;72.25;31.38;;;;;;;5.56;71.85;101144.81;5199957;28;20057;-72
2022/01/18 07:17:13;;;;;;;71.13;30.17;;;;;;;5.79;70.94;101136.00;5200032;28;20056;-70
2022/01/18 07:20:04;;;;;;;70.45;30.27;;;;;;;5.76;70.80;101148.44;5203095;28;20415;-69
2022/01/18 07:22:54;;;;;;;69.95;30.65;;;;;;;5.81;70.85;101151.75;5202764;28;20052;-70
2022/01/18 07:25:47;;;;;;;73.22;30.70;;;;;;;5.59;70.93;101152.56;5197003;28;20068;-70
2022/01/18 07:28:37;;;;;;;73.40;31.85;;;;;;;5.69;71.91;101157.47;5202270;28;20041;-69
2022/01/18 07:31:28;;;;;;;74.47;31.67;;;;;;;5.69;71.41;101160.97;5201951;28;20041;-71
2022/01/18 07:34:18;;;;;;;71.13;31.05;;;;;;;5.58;71.99;101140.34;5202640;28;20099;-70
2022/01/18 07:37:09;;;;;;;75.43;33.17;;;;;;;5.84;71.05;101176.19;5201991;28;20054;-69
2022/01/18 07:39:59;;;;;;;73.40;30.80;;;;;;;5.68;71.12;101182.09;5192410;28;20183;-71
2022/01/18 07:42:50;;;;;;;72.55;30.40;;;;;;;5.52;71.39;101153.72;5186729;28;20052;-69
2022/01/18 07:45:45;;;;;;;69.50;31.13;;;;;;;5.78;71.78;101173.78;5201364;28;20042;-70
2022/01/18 07:48:35;;;;;;;74.28;31.13;;;;;;;5.82;71.35;101187.69;5199485;28;20037;-70
2022/01/18 07:51:25;;;;;;;71.05;30.15;;;;;;;5.72;71.70;101170.53;5198639;28;20048;-71
2022/01/18 07:54:15;;;;;;;71.65;30.40;;;;;;;5.90;71.18;101182.97;5195014;28;20044;-70
2022/01/18 07:57:06;;;;;;;79.18;32.95;;;;;;;5.95;71.79;101183.69;5199266;28;20148;-71
2022/01/18 07:59:56;;;;;;;73.57;31.95;;;;;;;6.04;71.46;101182.47;5201354;28;20064;-71
2022/01/18 08:02:47;;;;;;;72.57;33.25;;;;;;;6.08;71.18;101184.91;5201396;28;20104;-69
2022/01/18 08:05:38;;;;;;;70.40;31.20;;;;;;;6.13;70.85;101179.47;5200732;28;20064;-69
2022/01/18 08:08:32;;;;;;;73.77;32.63;;;;;;;6.23;70.89;101172.06;5202017;28;20090;-69
2022/01/18 08:11:22;;;;;;;69.15;31.02;;;;;;;6.23;70.56;101172.06;5199318;28;20167;-70
2022/01/18 08:14:13;;;;;;;74.43;31.50;;;;;;;6.36;70.04;101173.25;5201538;28;20071;-71
2022/01/18 08:17:07;;;;;;;72.88;29.83;;;;;;;6.23;71.25;101169.41;5198778;28;20171;-71
2022/01/18 08:19:56;;;;;;;69.47;30.92;;;;;;;6.44;70.49;101181.69;5201240;28;20511;-71
2022/01/18 08:22:47;;;;;;;73.07;29.88;;;;;;;6.31;70.13;101185.75;5201388;28;20128;-71
2022/01/18 08:25:39;;;;;;;63.63;28.40;;;;;;;6.40;69.94;101182.75;5200113;28;20045;-71
2022/01/18 08:28:29;;;;;;;58.38;26.45;;;;;;;6.38;70.06;101184.56;5201341;28;20048;-70
2022/01/18 08:31:19;;;;;;;61.05;25.08;;;;;;;6.51;68.50;101180.50;5200661;28;20114;-70
2022/01/18 08:34:09;;;;;;;54.20;24.35;;;;;;;6.61;68.77;101191.53;5200938;28;20081;-71
2022/01/18 08:36:59;;;;;;;51.33;25.45;;;;;;;6.70;68.59;101196.41;5201384;28;20049;-71
2022/01/18 08:39:50;;;;;;;57.13;25.05;;;;;;;6.70;69.17;101198.19;5200207;28;20140;-71
2022/01/18 08:42:40;;;;;;;53.35;23.50;;;;;;;6.66;68.32;101188.72;5200991;28;20180;-71
2022/01/18 08:45:30;;;;;;;46.00;22.42;;;;;;;6.86;68.04;101196.63;5198646;28;20179;-70
2022/01/18 08:48:20;;;;;;;45.40;22.15;;;;;;;6.85;68.55;101186.97;5200997;28;20084;-69
2022/01/18 08:51:11;;;;;;;48.05;21.80;;;;;;;6.78;68.41;101180.25;5201135;28;20139;-71
2022/01/18 08:54:03;;;;;;;47.47;21.65;;;;;;;7.23;67.16;101200.28;5200251;28;20069;-70
2022/01/18 08:56:53;;;;;;;46.55;20.80;;;;;;;7.29;66.66;101197.38;5200497;28;20088;-71
2022/01/18 08:59:44;;;;;;;45.83;20.55;;;;;;;7.66;64.77;101185.13;5199900;28;20116;-71
2022/01/18 09:02:34;;;;;;;52.63;21.95;;;;;;;7.70;64.97;101190.19;5203778;28;20127;-71
2022/01/18 09:05:25;;;;;;;52.35;23.77;;;;;;;7.56;65.90;101189.97;5204427;28;20499;-70
2022/01/18 09:08:15;;;;;;;51.40;22.33;;;;;;;7.33;65.52;101198.09;5203970;28;20042;-69
2022/01/18 09:11:05;;;;;;;48.30;22.17;;;;;;;7.44;64.71;101198.44;5203285;28;20057;-71
2022/01/18 09:13:55;;;;;;;45.92;22.30;;;;;;;7.57;65.18;101196.09;5195318;28;20060;-71
2022/01/18 09:16:46;;;;;;;77.90;40.60;;;;;;;7.58;65.55;101203.09;5204184;28;20095;-71
2022/01/18 09:19:36;;;;;;;50.90;24.40;;;;;;;7.81;65.91;101189.66;5203099;28;20052;-71
2022/01/18 09:22:26;;;;;;;44.40;21.77;;;;;;;7.79;65.01;101195.97;5191016;28;20126;-71
2022/01/18 09:25:20;;;;;;;48.03;23.48;;;;;;;7.75;65.62;101197.91;5204337;28;20435;-71
2022/01/18 09:28:10;;;;;;;49.85;23.50;;;;;;;7.76;66.40;101200.47;5188773;28;20041;-71
2022/01/18 09:31:00;;;;;;;45.88;21.95;;;;;;;7.85;67.22;101196.53;5217038;28;20068;-71
2022/01/18 09:33:51;;;;;;;46.45;21.02;;;;;;;7.86;65.32;101195.59;5204158;28;20072;-71
2022/01/18 09:36:42;;;;;;;37.75;17.65;;;;;;;7.94;63.90;101195.22;5203171;28;20049;-71
2022/01/18 09:39:32;;;;;;;39.15;17.75;;;;;;;8.10;62.28;101198.00;5203661;28;20120;-71
2022/01/18 09:42:27;;;;;;;38.60;17.58;;;;;;;7.89;64.72;101200.75;5204800;28;20143;-70
2022/01/18 09:45:19;;;;;;;35.28;14.75;;;;;;;7.90;64.19;101210.38;5188640;28;20537;-71
2022/01/18 09:48:11;;;;;;;32.50;16.58;;;;;;;8.08;64.33;101213.94;5204256;28;20068;-70
2022/01/18 09:51:01;;;;;;;35.38;15.95;;;;;;;7.98;64.53;101216.16;5204085;28;20136;-72
2022/01/18 09:53:52;;;;;;;35.38;16.10;;;;;;;8.08;63.14;101220.97;5204803;28;20091;-71
2022/01/18 09:56:42;;;;;;;32.35;16.30;;;;;;;8.08;64.06;101216.59;5202937;28;20057;-72
2022/01/18 09:59:32;;;;;;;30.70;14.93;;;;;;;7.75;63.39;101205.81;5203926;28;20120;-70
2022/01/18 10:02:22;;;;;;;31.50;15.75;;;;;;;8.11;63.61;101204.97;5201750;28;20048;-69
2022/01/18 10:05:28;;;;;;;30.42;14.07;;;;;;;8.27;61.65;101218.31;5200091;28;20072;-72
2022/01/18 10:08:18;;;;;;;32.65;14.55;;;;;;;8.34;61.87;101198.59;5203633;28;20052;-72
2022/01/18 10:11:16;;;;;;;32.55;14.75;;;;;;;8.23;63.11;101201.75;5202097;28;20084;-70
2022/01/18 10:14:18;;;;;;;30.92;14.00;;;;;;;7.78;62.51;101205.66;5203498;28;20415;-72
2022/01/18 10:17:11;;;;;;;26.73;12.32;;;;;;;7.67;62.44;101213.22;5200035;28;20522;-72
2022/01/18 10:20:12;;;;;;;24.45;12.20;;;;;;;7.87;62.83;101194.66;5202488;28;20593;-71
2022/01/18 10:23:02;;;;;;;25.15;12.98;;;;;;;7.98;62.09;101202.94;5216540;22;20068;-68
2022/01/18 10:25:53;;;;;;;22.42;10.90;;;;;;;8.37;62.34;101196.63;5195636;28;20120;-69
2022/01/18 10:28:44;;;;;;;30.42;13.15;;;;;;;8.19;61.78;101187.84;5185721;28;20140;-66
2022/01/18 10:35:04;;;;;;;25.40;13.10;;;;;;;8.52;63.22;101175.72;5180165;28;20109;-67
2022/01/18 10:37:53;;;;;;;34.55;12.25;;;;;;;8.45;62.00;101173.38;5177064;28;20046;-69
2022/01/18 10:40:43;;;;;;;22.85;11.07;;;;;;;8.54;60.36;101173.81;5167578;28;20264;-68
2022/01/18 10:43:33;;;;;;;28.20;12.85;;;;;;;8.39;62.31;101173.66;5180811;28;20057;-67
2022/01/18 10:46:30;;;;;;;31.50;13.68;;;;;;;8.49;62.51;101165.28;5165235;28;20077;-67
2022/01/18 10:49:30;;;;;;;28.52;12.07;;;;;;;8.60;63.18;101169.09;5172986;28;20133;-66
2022/01/18 10:52:26;;;;;;;31.90;13.27;;;;;;;8.18;63.23;101148.28;5178382;28;20049;-66
2022/01/18 10:55:22;;;;;;;33.03;13.38;;;;;;;8.51;64.41;101164.28;5180677;28;20060;-66
2022/01/18 10:58:22;;;;;;;25.83;12.48;;;;;;;8.57;62.94;101165.75;5171193;28;20069;-66
2022/01/18 11:01:17;;;;;;;29.63;14.60;;;;;;;8.24;62.97;101156.78;5173052;28;20048;-66
2022/01/18 11:04:11;;;;;;;33.85;11.82;;;;;;;8.22;64.51;101161.25;5168913;28;20470;-69
2022/01/18 11:07:03;;;;;;;22.83;11.48;;;;;;;8.17;63.60;101154.47;5168993;28;20125;-66
2022/01/18 11:10:04;;;;;;;28.58;12.75;;;;;;;8.01;63.65;101143.81;5174468;28;20054;-66
2022/01/18 11:13:02;;;;;;;22.30;10.85;;;;;;;8.00;64.49;101152.66;5165562;28;20331;-67
2022/01/18 11:16:02;;;;;;;23.42;10.32;;;;;;;7.93;64.45;101133.63;5178461;28;20618;-67
2022/01/18 11:18:54;;;;;;;23.65;9.93;;;;;;;7.97;64.22;101131.69;5175028;28;20065;-67
2022/01/18 11:21:46;;;;;;;22.65;10.07;;;;;;;8.00;63.99;101131.53;5169118;28;20049;-67
2022/01/18 11:24:42;;;;;;;22.75;8.55;;;;;;;7.74;64.31;101135.44;5179858;28;20076;-66
2022/01/18 11:27:35;;;;;;;16.85;7.47;;;;;;;7.86;63.45;101128.72;5178231;28;20530;-66
2022/01/18 11:30:36;;;;;;;16.23;7.75;;;;;;;7.87;62.65;101127.78;5176053;28;20304;-71
2022/01/18 11:33:29;;;;;;;19.65;6.50;;;;;;;8.01;62.17;101133.22;5180905;28;20123;-69
2022/01/18 11:36:24;;;;;;;20.10;6.40;;;;;;;7.89;62.89;101137.34;5175750;28;20060;-67
2022/01/18 11:39:17;;;;;;;17.95;7.30;;;;;;;7.85;63.60;101129.66;5180812;28;20061;-68
2022/01/18 11:42:11;;;;;;;18.17;7.05;;;;;;;8.17;62.11;101142.13;5177699;28;20415;-69
2022/01/18 11:45:25;;;;;;;17.65;7.03;;;;;;;8.37;60.20;101135.00;5178996;28;20426;-67
2022/01/18 11:48:23;;;;;;;18.85;7.32;;;;;;;8.14;61.44;101138.78;5179224;28;20931;-67
2022/01/18 11:51:18;;;;;;;15.23;7.25;;;;;;;8.17;61.12;101131.56;5172198;28;20057;-70
2022/01/18 11:54:31;;;;;;;;;;;;;;;8.38;61.04;101123.53;5171915;28;20046;-71
2022/01/18 11:57:25;;;;;;;13.68;5.88;;;;;;;8.46;60.51;101121.34;5171164;28;19956;-70
2022/01/18 12:00:24;;;;;;;19.85;6.63;;;;;;;8.44;61.22;101097.66;5178172;28;20466;-67
2022/01/18 12:03:17;;;;;;;21.20;7.53;;;;;;;8.60;60.35;101100.34;5180385;28;20539;-69
2022/01/18 12:06:08;;;;;;;18.88;7.20;;;;;;;8.42;62.09;101096.84;5177467;28;20050;-66
2022/01/18 12:08:59;;;;;;;14.68;6.22;;;;;;;8.72;60.29;101082.97;5180798;28;20085;-66
2022/01/18 12:11:49;;;;;;;17.70;6.63;;;;;;;9.11;59.59;101098.53;5176146;28;20053;-67
2022/01/18 12:14:43;;;;;;;18.58;7.10;;;;;;;8.99;60.28;101099.16;5177717;28;20420;-68
2022/01/18 12:17:46;;;;;;;21.70;8.77;;;;;;;9.23;58.73;101094.34;5177931;28;20064;-68
2022/01/18 12:20:39;;;;;;;14.20;6.85;;;;;;;9.40;59.56;101098.69;5181392;28;20045;-70
2022/01/18 12:23:32;;;;;;;14.80;5.30;;;;;;;8.90;58.84;101094.38;5177873;28;20053;-67
2022/01/18 12:29:34;;;;;;;11.93;5.15;;;;;;;8.79;59.75;101094.94;5179868;28;20133;-66
2022/01/18 12:32:41;;;;;;;9.52;3.42;;;;;;;8.85;57.97;101091.97;5191584;28;20520;-70
2022/01/18 12:35:33;;;;;;;10.73;4.70;;;;;;;8.76;59.32;101088.97;5178292;28;20056;-66
2022/01/18 12:38:24;;;;;;;38.65;17.55;;;;;;;8.96;57.80;101074.66;5182917;28;20555;-67
2022/01/18 12:41:51;;;;;;;36.67;18.05;;;;;;;8.87;58.63;101078.66;5182764;28;20089;-67
2022/01/18 12:44:43;;;;;;;16.33;6.38;;;;;;;8.45;60.11;101082.63;5175124;28;20076;-70
2022/01/18 12:47:35;;;;;;;9.93;4.18;;;;;;;8.36;58.54;101075.13;5168878;28;20047;-68
2022/01/18 12:50:32;;;;;;;19.00;7.10;;;;;;;8.85;59.39;101073.47;5180508;28;20049;-66
2022/01/18 12:53:27;;;;;;;36.55;15.43;;;;;;;8.90;58.23;101073.19;5176308;28;20053;-68
2022/01/18 12:56:24;;;;;;;19.73;7.00;;;;;;;8.60;58.70;101080.97;5152716;28;20428;-68
2022/01/18 12:59:15;;;;;;;11.35;5.03;;;;;;;8.49;58.84;101081.53;5177509;28;20117;-70
2022/01/18 13:02:18;;;;;;;13.55;5.15;;;;;;;8.58;59.69;101077.56;5176117;28;20056;-68
2022/01/18 13:05:09;;;;;;;12.80;4.25;;;;;;;8.60;60.09;101078.31;5163315;28;20412;-69
2022/01/18 13:07:58;;;;;;;6.55;3.50;;;;;;;7.72;59.81;101079.22;5182977;28;20073;-70
2022/01/18 13:10:51;;;;;;;6.93;3.47;;;;;;;8.23;58.77;101067.81;5175605;28;20129;-67
2022/01/18 13:13:48;;;;;;;11.68;3.58;;;;;;;8.42;58.95;101053.72;5173277;28;20065;-69
2022/01/18 13:22:59;;;;;;;6.43;3.05;;;;;;;8.19;59.93;101065.44;5171793;28;20068;-67
2022/01/18 13:25:55;;;;;;;7.53;2.83;;;;;;;8.22;59.95;101037.06;5183168;28;20483;-68
2022/01/18 13:28:45;;;;;;;9.20;3.17;;;;;;;8.40;60.18;101055.56;5179843;28;20053;-67
2022/01/18 13:31:35;;;;;;;4.47;2.60;;;;;;;8.55;59.62;101057.41;5182979;28;20538;-69
2022/01/18 13:34:33;;;;;;;7.68;4.13;;;;;;;8.31;59.03;101056.88;5169133;28;20053;-70
2022/01/18 13:37:27;;;;;;;9.35;3.80;;;;;;;8.48;59.53;101061.31;5171250;28;20420;-68
2022/01/18 13:40:19;;;;;;;10.60;3.50;;;;;;;8.21;60.62;101053.84;5174217;28;20061;-67
2022/01/18 13:43:14;;;;;;;9.88;4.63;;;;;;;8.07;61.58;101014.03;5163248;28;20052;-68
2022/01/18 13:46:04;;;;;;;4.85;2.80;;;;;;;8.34;59.21;101048.75;5167012;28;20097;-68
2022/01/18 13:49:09;;;;;;;11.45;3.78;;;;;;;8.23;60.64;101049.31;5180678;28;20053;-68
2022/01/18 13:52:06;;;;;;;7.25;3.35;;;;;;;7.34;62.03;101046.72;5165482;28;20061;-68
2022/01/18 13:54:57;;;;;;;8.65;3.30;;;;;;;7.29;61.84;101052.22;5183053;28;20057;-68
2022/01/18 13:57:55;;;;;;;6.38;2.58;;;;;;;7.52;60.57;101057.28;5173406;28;20096;-68
2022/01/18 14:00:46;;;;;;;4.65;2.33;;;;;;;7.78;60.62;101047.19;5180760;28;20519;-65
2022/01/18 14:03:39;;;;;;;7.72;2.97;;;;;;;7.82;61.25;101043.50;5176342;28;20397;-66
2022/01/18 14:06:41;;;;;;;11.57;2.78;;;;;;;7.81;60.12;101035.63;5164849;28;20379;-65
2022/01/18 14:09:31;;;;;;;6.90;2.63;;;;;;;8.05;59.34;101033.56;5176372;28;20132;-65
2022/01/18 14:12:21;;;;;;;10.32;2.85;;;;;;;8.14;59.49;101035.72;5176588;28;20069;-65
2022/01/18 14:15:11;;;;;;;5.70;2.72;;;;;;;7.55;60.52;101040.44;5172096;28;20101;-65
2022/01/18 14:18:06;;;;;;;8.10;2.67;;;;;;;6.94;61.47;101043.31;5179748;28;20049;-65
2022/01/18 14:20:56;;;;;;;12.25;3.78;;;;;;;7.23;62.14;101042.81;5177232;28;20045;-66
2022/01/18 14:23:46;;;;;;;8.70;3.22;;;;;;;6.35;62.73;101045.06;5181394;28;20065;-66
2022/01/18 14:26:37;;;;;;;11.80;3.33;;;;;;;6.65;62.96;101048.13;5179492;28;20519;-66